sensor_id;sensor_type;location;lat;lon;timestamp;pressure;altitude;pressure_sealevel;temperature;humidity
33949;BME280;20229;49.856;19.030;2023-11-21T00:00:36;100796.45;;;9.13;100.00
33949;BME280;20229;49.856;19.030;2023-11-21T00:05:55;100800.04;;;9.13;100.00
33949;BME280;20229;49.856;19.030;2023-11-21T00:11:13;100804.62;;;9.13;100.00
33949;BME280;20229;49.856;19.030;2023-11-21T00:16:28;100806.45;;;9.12;100.00
33949;BME280;20229;49.856;19.030;2023-11-21T00:21:50;100827.33;;;9.12;100.00
33949;BME280;20229;49.856;19.030;2023-11-21T00:27:04;100834.72;;;9.09;100.00
33949;BME280;20229;49.856;19.030;2023-11-21T00:32:19;100819.49;;;9.05;100.00
33949;BME280;20229;49.856;19.030;2023-11-21T00:37:34;100833.97;;;9.06;100.00
33949;BME280;20229;49.856;19.030;2023-11-21T00:42:48;100829.41;;;9.06;100.00
33949;BME280;20229;49.856;19.030;2023-11-21T00:48:03;100821.33;;;9.05;100.00
33949;BME280;20229;49.856;19.030;2023-11-21T00:53:18;100824.10;;;9.03;100.00
33949;BME280;20229;49.856;19.030;2023-11-21T00:58:32;100830.43;;;9.04;100.00
33949;BME280;20229;49.856;19.030;2023-11-21T01:03:46;100826.91;;;9.02;100.00
33949;BME280;20229;49.856;19.030;2023-11-21T01:09:01;100817.05;;;8.99;100.00
33949;BME280;20229;49.856;19.030;2023-11-21T01:14:23;100821.62;;;8.99;100.00
33949;BME280;20229;49.856;19.030;2023-11-21T01:19:40;100840.91;;;8.94;100.00
33949;BME280;20229;49.856;19.030;2023-11-21T01:24:55;100849.34;;;8.88;100.00
33949;BME280;20229;49.856;19.030;2023-11-21T01:30:11;100852.95;;;8.89;100.00
33949;BME280;20229;49.856;19.030;2023-11-21T01:35:26;100849.34;;;8.88;100.00
33949;BME280;20229;49.856;19.030;2023-11-21T01:40:39;100843.09;;;8.86;100.00
33949;BME280;20229;49.856;19.030;2023-11-21T01:45:54;100850.52;;;8.82;100.00
33949;BME280;20229;49.856;19.030;2023-11-21T01:51:10;100845.90;;;8.84;100.00
33949;BME280;20229;49.856;19.030;2023-11-21T01:56:24;100847.88;;;8.81;100.00
33949;BME280;20229;49.856;19.030;2023-11-21T02:01:39;100846.13;;;8.80;100.00
33949;BME280;20229;49.856;19.030;2023-11-21T02:06:54;100838.09;;;8.77;100.00
33949;BME280;20229;49.856;19.030;2023-11-21T02:12:09;100845.38;;;8.76;100.00
33949;BME280;20229;49.856;19.030;2023-11-21T02:17:24;100843.67;;;8.74;100.00
33949;BME280;20229;49.856;19.030;2023-11-21T02:22:41;100841.84;;;8.74;100.00
33949;BME280;20229;49.856;19.030;2023-11-21T02:27:58;100846.53;;;8.71;100.00
33949;BME280;20229;49.856;19.030;2023-11-21T02:33:12;100844.05;;;8.66;100.00
33949;BME280;20229;49.856;19.030;2023-11-21T02:38:28;100860.55;;;8.61;100.00
33949;BME280;20229;49.856;19.030;2023-11-21T02:43:42;100850.55;;;8.62;100.00
33949;BME280;20229;49.856;19.030;2023-11-21T02:48:57;100852.48;;;8.60;100.00
33949;BME280;20229;49.856;19.030;2023-11-21T02:54:11;100860.64;;;8.60;100.00
33949;BME280;20229;49.856;19.030;2023-11-21T02:59:26;100859.81;;;8.58;100.00
33949;BME280;20229;49.856;19.030;2023-11-21T03:04:40;100856.16;;;8.59;100.00
33949;BME280;20229;49.856;19.030;2023-11-21T03:09:55;100854.37;;;8.58;100.00
33949;BME280;20229;49.856;19.030;2023-11-21T03:15:10;100848.93;;;8.58;100.00
33949;BME280;20229;49.856;19.030;2023-11-21T03:20:24;100847.25;;;8.55;100.00
33949;BME280;20229;49.856;19.030;2023-11-21T03:25:39;100853.48;;;8.57;100.00
33949;BME280;20229;49.856;19.030;2023-11-21T03:30:55;100861.79;;;8.54;100.00
33949;BME280;20229;49.856;19.030;2023-11-21T03:36:10;100855.41;;;8.55;100.00
33949;BME280;20229;49.856;19.030;2023-11-21T03:41:26;100856.48;;;8.51;100.00
33949;BME280;20229;49.856;19.030;2023-11-21T03:46:40;100859.21;;;8.51;100.00
33949;BME280;20229;49.856;19.030;2023-11-21T03:51:54;100852.97;;;8.49;100.00
33949;BME280;20229;49.856;19.030;2023-11-21T03:57:08;100847.45;;;8.51;100.00
33949;BME280;20229;49.856;19.030;2023-11-21T04:02:22;100850.24;;;8.49;100.00
33949;BME280;20229;49.856;19.030;2023-11-21T04:07:39;100846.66;;;8.49;100.00
33949;BME280;20229;49.856;19.030;2023-11-21T04:12:53;100850.38;;;8.46;100.00
33949;BME280;20229;49.856;19.030;2023-11-21T04:18:07;100848.62;;;8.45;100.00
33949;BME280;20229;49.856;19.030;2023-11-21T04:23:21;100848.62;;;8.45;100.00
33949;BME280;20229;49.856;19.030;2023-11-21T04:28:38;100858.47;;;8.48;100.00
33949;BME280;20229;49.856;19.030;2023-11-21T04:33:59;100857.58;;;8.47;100.00
33949;BME280;20229;49.856;19.030;2023-11-21T04:39:13;100852.14;;;8.47;100.00
33949;BME280;20229;49.856;19.030;2023-11-21T04:44:27;100857.58;;;8.47;100.00
33949;BME280;20229;49.856;19.030;2023-11-21T04:49:42;100865.82;;;8.46;100.00
33949;BME280;20229;49.856;19.030;2023-11-21T04:54:57;100870.38;;;8.45;100.00
33949;BME280;20229;49.856;19.030;2023-11-21T05:00:14;100874.88;;;8.46;100.00
33949;BME280;20229;49.856;19.030;2023-11-21T05:05:29;100882.15;;;8.46;100.00
33949;BME280;20229;49.856;19.030;2023-11-21T05:10:43;100871.27;;;8.46;100.00
33949;BME280;20229;49.856;19.030;2023-11-21T05:15:57;100891.20;;;8.46;100.00
33949;BME280;20229;49.856;19.030;2023-11-21T05:21:12;100892.02;;;8.48;100.00
33949;BME280;20229;49.856;19.030;2023-11-21T05:26:27;100895.66;;;8.47;100.00
33949;BME280;20229;49.856;19.030;2023-11-21T05:31:42;100899.35;;;8.46;100.00
33949;BME280;20229;49.856;19.030;2023-11-21T05:37:00;100894.88;;;8.45;100.00
33949;BME280;20229;49.856;19.030;2023-11-21T05:42:14;100903.03;;;8.45;100.00
33949;BME280;20229;49.856;19.030;2023-11-21T05:47:28;100910.37;;;8.43;100.00
33949;BME280;20229;49.856;19.030;2023-11-21T05:52:43;100919.49;;;8.42;100.00
33949;BME280;20229;49.856;19.030;2023-11-21T05:57:58;100922.21;;;8.42;100.00
33949;BME280;20229;49.856;19.030;2023-11-21T06:03:12;100924.93;;;8.42;100.00
33949;BME280;20229;49.856;19.030;2023-11-21T06:08:26;100933.10;;;8.42;100.00
33949;BME280;20229;49.856;19.030;2023-11-21T06:13:40;100931.38;;;8.40;100.00
33949;BME280;20229;49.856;19.030;2023-11-21T06:18:55;100945.96;;;8.37;100.00
33949;BME280;20229;49.856;19.030;2023-11-21T06:24:10;100950.51;;;8.38;100.00
33949;BME280;20229;49.856;19.030;2023-11-21T06:29:24;100957.70;;;8.39;100.00
33949;BME280;20229;49.856;19.030;2023-11-21T06:34:41;100959.20;;;8.46;100.00
33949;BME280;20229;49.856;19.030;2023-11-21T06:39:56;100970.97;;;8.47;100.00
33949;BME280;20229;49.856;19.030;2023-11-21T06:45:13;100976.20;;;8.51;100.00
33949;BME280;20229;49.856;19.030;2023-11-21T06:50:28;100979.84;;;8.52;100.00
33949;BME280;20229;49.856;19.030;2023-11-21T06:55:42;100979.67;;;8.55;100.00
33949;BME280;20229;49.856;19.030;2023-11-21T07:00:56;100984.11;;;8.57;100.00
33949;BME280;20229;49.856;19.030;2023-11-21T07:06:12;100992.97;;;8.63;100.00
33949;BME280;20229;49.856;19.030;2023-11-21T07:11:27;100993.77;;;8.65;100.00
33949;BME280;20229;49.856;19.030;2023-11-21T07:16:41;100991.79;;;8.68;100.00
33949;BME280;20229;49.856;19.030;2023-11-21T07:21:55;100987.09;;;8.72;100.00
33949;BME280;20229;49.856;19.030;2023-11-21T07:27:09;100984.77;;;8.83;100.00
33949;BME280;20229;49.856;19.030;2023-11-21T07:32:23;100995.35;;;8.91;100.00
33949;BME280;20229;49.856;19.030;2023-11-21T07:37:37;100992.28;;;8.98;100.00
33949;BME280;20229;49.856;19.030;2023-11-21T07:42:52;100983.98;;;9.01;100.00
33949;BME280;20229;49.856;19.030;2023-11-21T07:48:08;100998.91;;;9.12;100.00
33949;BME280;20229;49.856;19.030;2023-11-21T07:53:22;100988.48;;;9.21;100.00
33949;BME280;20229;49.856;19.030;2023-11-21T07:58:43;100996.10;;;9.33;100.00
33949;BME280;20229;49.856;19.030;2023-11-21T08:03:59;100996.70;;;9.40;100.00
33949;BME280;20229;49.856;19.030;2023-11-21T08:09:16;101013.66;;;9.66;100.00
33949;BME280;20229;49.856;19.030;2023-11-21T08:14:31;101008.04;;;9.88;100.00
33949;BME280;20229;49.856;19.030;2023-11-21T08:19:45;101008.19;;;10.03;100.00
33949;BME280;20229;49.856;19.030;2023-11-21T08:25:05;101010.37;;;10.14;99.81
33949;BME280;20229;49.856;19.030;2023-11-21T08:30:19;101015.61;;;10.19;99.08
33949;BME280;20229;49.856;19.030;2023-11-21T08:35:37;101022.17;;;10.15;99.09
33949;BME280;20229;49.856;19.030;2023-11-21T08:40:51;101022.17;;;10.15;98.84
33949;BME280;20229;49.856;19.030;2023-11-21T08:46:07;101023.79;;;10.19;98.67
33949;BME280;20229;49.856;19.030;2023-11-21T08:51:22;101021.70;;;10.24;97.93
33949;BME280;20229;49.856;19.030;2023-11-21T08:56:35;101031.38;;;10.31;97.92
33949;BME280;20229;49.856;19.030;2023-11-21T09:01:49;101040.14;;;10.38;96.98
33949;BME280;20229;49.856;19.030;2023-11-21T09:07:04;101033.71;;;10.39;96.85
33949;BME280;20229;49.856;19.030;2023-11-21T09:12:18;101035.25;;;10.44;95.85
33949;BME280;20229;49.856;19.030;2023-11-21T09:17:36;101034.53;;;10.41;96.02
33949;BME280;20229;49.856;19.030;2023-11-21T09:22:50;101036.29;;;10.42;95.74
33949;BME280;20229;49.856;19.030;2023-11-21T09:28:05;101039.11;;;10.40;95.97
33949;BME280;20229;49.856;19.030;2023-11-21T09:33:23;101037.35;;;10.39;95.59
33949;BME280;20229;49.856;19.030;2023-11-21T09:38:38;101037.50;;;10.36;95.36
33949;BME280;20229;49.856;19.030;2023-11-21T09:43:56;101044.57;;;10.40;95.04
33949;BME280;20229;49.856;19.030;2023-11-21T09:49:15;101041.84;;;10.40;94.84
33949;BME280;20229;49.856;19.030;2023-11-21T09:54:34;101041.39;;;10.49;94.69
33949;BME280;20229;49.856;19.030;2023-11-21T09:59:55;101042.75;;;10.58;95.43
33949;BME280;20229;49.856;19.030;2023-11-21T10:08:37;101043.48;;;10.62;94.58
33949;BME280;20229;49.856;19.030;2023-11-21T10:14:03;101044.35;;;10.62;94.62
33949;BME280;20229;49.856;19.030;2023-11-21T10:19:18;101046.38;;;10.76;94.16
33949;BME280;20229;49.856;19.030;2023-11-21T10:24:35;101042.92;;;10.72;93.47
33949;BME280;20229;49.856;19.030;2023-11-21T10:29:51;101045.25;;;10.80;93.82
33949;BME280;20229;49.856;19.030;2023-11-21T10:35:08;101040.11;;;10.91;92.66
33949;BME280;20229;49.856;19.030;2023-11-21T10:40:27;101035.45;;;11.11;91.85
33949;BME280;20229;49.856;19.030;2023-11-21T10:45:43;101043.39;;;11.15;91.71
33949;BME280;20229;49.856;19.030;2023-11-21T10:50:58;101037.77;;;11.18;90.56
33949;BME280;20229;49.856;19.030;2023-11-21T10:56:14;101034.94;;;11.20;90.58
33949;BME280;20229;49.856;19.030;2023-11-21T11:01:34;101028.59;;;11.19;91.03
33949;BME280;20229;49.856;19.030;2023-11-21T11:06:54;101030.96;;;11.10;89.95
33949;BME280;20229;49.856;19.030;2023-11-21T11:12:10;101039.73;;;10.99;90.08
33949;BME280;20229;49.856;19.030;2023-11-21T11:17:25;101032.72;;;10.93;91.18
33949;BME280;20229;49.856;19.030;2023-11-21T11:23:04;101035.05;;;11.01;90.87
33949;BME280;20229;49.856;19.030;2023-11-21T11:28:11;101026.79;;;11.03;89.69
33949;BME280;20229;49.856;19.030;2023-11-21T11:33:36;101032.06;;;11.06;90.40
33949;BME280;20229;49.856;19.030;2023-11-21T11:38:52;101034.89;;;11.04;90.37
33949;BME280;20229;49.856;19.030;2023-11-21T11:44:57;101046.70;;;11.05;89.13
33949;BME280;20229;49.856;19.030;2023-11-21T11:49:37;101045.26;;;10.97;88.52
33949;BME280;20229;49.856;19.030;2023-11-21T11:54:54;101049.12;;;10.93;88.46
33949;BME280;20229;49.856;19.030;2023-11-21T12:06:02;101054.48;;;10.77;88.97
33949;BME280;20229;49.856;19.030;2023-11-21T12:11:17;101046.38;;;10.76;88.60
33949;BME280;20229;49.856;19.030;2023-11-21T12:16:32;101051.02;;;10.74;89.11
33949;BME280;20229;49.856;19.030;2023-11-21T12:21:48;101047.36;;;10.75;88.97
33949;BME280;20229;49.856;19.030;2023-11-21T12:27:04;101043.65;;;10.76;89.60
33949;BME280;20229;49.856;19.030;2023-11-21T12:32:18;101047.83;;;10.83;90.56
33949;BME280;20229;49.856;19.030;2023-11-21T12:37:32;101042.37;;;10.83;90.40
33949;BME280;20229;49.856;19.030;2023-11-21T12:42:48;101046.95;;;10.83;90.52
33949;BME280;20229;49.856;19.030;2023-11-21T12:48:05;101046.38;;;10.76;90.36
33949;BME280;20229;49.856;19.030;2023-11-21T12:53:25;101051.21;;;10.71;91.26
33949;BME280;20229;49.856;19.030;2023-11-21T12:58:44;101063.41;;;10.64;91.32
33949;BME280;20229;49.856;19.030;2023-11-21T13:04:00;101066.34;;;10.59;91.78
33949;BME280;20229;49.856;19.030;2023-11-21T13:09:18;101066.83;;;10.50;92.86
33949;BME280;20229;49.856;19.030;2023-11-21T13:14:35;101070.90;;;10.41;91.80
33949;BME280;20229;49.856;19.030;2023-11-21T13:19:49;101083.37;;;10.28;92.42
33949;BME280;20229;49.856;19.030;2023-11-21T13:25:03;101084.09;;;10.13;93.11
33949;BME280;20229;49.856;19.030;2023-11-21T13:30:21;101085.64;;;9.99;93.29
33949;BME280;20229;49.856;19.030;2023-11-21T13:35:46;101087.35;;;9.83;93.74
33949;BME280;20229;49.856;19.030;2023-11-21T13:41:05;101081.44;;;9.73;94.61
33949;BME280;20229;49.856;19.030;2023-11-21T13:46:23;101079.81;;;9.69;94.81
33949;BME280;20229;49.856;19.030;2023-11-21T13:51:37;101093.68;;;9.65;95.17
33949;BME280;20229;49.856;19.030;2023-11-21T13:57:01;101097.61;;;9.57;95.68
33949;BME280;20229;49.856;19.030;2023-11-21T14:02:19;101095.19;;;9.51;95.40
33949;BME280;20229;49.856;19.030;2023-11-21T14:07:43;101111.73;;;9.47;95.65
33949;BME280;20229;49.856;19.030;2023-11-21T14:13:01;101108.34;;;9.42;95.95
33949;BME280;20229;49.856;19.030;2023-11-21T14:18:16;101109.48;;;9.36;96.26
33949;BME280;20229;49.856;19.030;2023-11-21T14:23:34;101106.31;;;9.26;95.86
33949;BME280;20229;49.856;19.030;2023-11-21T14:28:52;101111.06;;;9.21;96.54
33949;BME280;20229;49.856;19.030;2023-11-21T14:34:08;101109.44;;;9.17;96.57
33949;BME280;20229;49.856;19.030;2023-11-21T14:39:22;101112.24;;;9.16;96.56
33949;BME280;20229;49.856;19.030;2023-11-21T14:44:42;101110.73;;;9.08;96.79
33949;BME280;20229;49.856;19.030;2023-11-21T14:49:56;101124.49;;;9.05;96.83
33949;BME280;20229;49.856;19.030;2023-11-21T14:55:18;101131.91;;;9.02;97.45
33949;BME280;20229;49.856;19.030;2023-11-21T15:01:12;101128.48;;;8.97;97.60
33949;BME280;20229;49.856;19.030;2023-11-21T15:06:27;101137.73;;;8.93;97.69
33949;BME280;20229;49.856;19.030;2023-11-21T15:11:43;101129.90;;;8.85;98.46
33949;BME280;20229;49.856;19.030;2023-11-21T15:16:58;101138.06;;;8.85;98.25
33949;BME280;20229;49.856;19.030;2023-11-21T15:22:24;101139.27;;;8.78;98.13
33949;BME280;20229;49.856;19.030;2023-11-21T15:27:40;101142.95;;;8.77;98.22
33949;BME280;20229;49.856;19.030;2023-11-21T15:32:55;101153.97;;;8.74;98.26
33949;BME280;20229;49.856;19.030;2023-11-21T15:38:09;101148.57;;;8.72;98.16
33949;BME280;20229;49.856;19.030;2023-11-21T15:43:23;101160.50;;;8.70;98.61
33949;BME280;20229;49.856;19.030;2023-11-21T15:48:38;101153.26;;;8.69;98.94
33949;BME280;20229;49.856;19.030;2023-11-21T15:53:59;101150.66;;;8.66;99.47
33949;BME280;20229;49.856;19.030;2023-11-21T15:59:12;101158.98;;;8.63;99.46
33949;BME280;20229;49.856;19.030;2023-11-21T16:04:27;101164.55;;;8.59;100.00
33949;BME280;20229;49.856;19.030;2023-11-21T16:09:43;101162.74;;;8.58;100.00
33949;BME280;20229;49.856;19.030;2023-11-21T16:14:59;101158.26;;;8.57;100.00
33949;BME280;20229;49.856;19.030;2023-11-21T16:20:21;101175.47;;;8.58;100.00
33949;BME280;20229;49.856;19.030;2023-11-21T16:25:35;101176.51;;;8.55;100.00
33949;BME280;20229;49.856;19.030;2023-11-21T16:30:50;101177.42;;;8.54;100.00
33949;BME280;20229;49.856;19.030;2023-11-21T16:36:04;101183.83;;;8.53;100.00
33949;BME280;20229;49.856;19.030;2023-11-21T16:41:20;101184.72;;;8.54;100.00
33949;BME280;20229;49.856;19.030;2023-11-21T16:46:34;101190.35;;;8.49;100.00
33949;BME280;20229;49.856;19.030;2023-11-21T16:51:48;101196.75;;;8.48;100.00
33949;BME280;20229;49.856;19.030;2023-11-21T16:57:04;101209.52;;;8.46;100.00
33949;BME280;20229;49.856;19.030;2023-11-21T17:02:19;101205.03;;;8.45;100.00
33949;BME280;20229;49.856;19.030;2023-11-21T17:07:35;101205.15;;;8.42;100.00
33949;BME280;20229;49.856;19.030;2023-11-21T17:12:50;101210.48;;;8.45;100.00
33949;BME280;20229;49.856;19.030;2023-11-21T17:18:04;101211.40;;;8.44;100.00
33949;BME280;20229;49.856;19.030;2023-11-21T17:23:19;101205.95;;;8.44;100.00
33949;BME280;20229;49.856;19.030;2023-11-21T17:28:33;101210.48;;;8.45;100.00
33949;BME280;20229;49.856;19.030;2023-11-21T17:33:47;101215.84;;;8.47;100.00
33949;BME280;20229;49.856;19.030;2023-11-21T17:39:01;101206.87;;;8.45;100.00
33949;BME280;20229;49.856;19.030;2023-11-21T17:44:20;101215.03;;;8.45;100.00
33949;BME280;20229;49.856;19.030;2023-11-21T17:49:34;101220.52;;;8.43;100.00
33949;BME280;20229;49.856;19.030;2023-11-21T17:54:48;101218.57;;;8.47;100.00
33949;BME280;20229;49.856;19.030;2023-11-21T18:00:04;101222.28;;;8.44;100.00
33949;BME280;20229;49.856;19.030;2023-11-21T18:05:23;101229.52;;;8.45;100.00
33949;BME280;20229;49.856;19.030;2023-11-21T18:10:37;101226.91;;;8.42;100.00
33949;BME280;20229;49.856;19.030;2023-11-21T18:15:52;101235.84;;;8.46;100.00
33949;BME280;20229;49.856;19.030;2023-11-21T18:21:06;101232.28;;;8.44;100.00
33949;BME280;20229;49.856;19.030;2023-11-21T18:26:20;101241.28;;;8.46;100.00
33949;BME280;20229;49.856;19.030;2023-11-21T18:31:35;101245.85;;;8.45;100.00
33949;BME280;20229;49.856;19.030;2023-11-21T18:36:49;101240.41;;;8.45;100.00
33949;BME280;20229;49.856;19.030;2023-11-21T18:42:07;101251.28;;;8.45;100.00
33949;BME280;20229;49.856;19.030;2023-11-21T18:47:21;101255.84;;;8.45;100.00
33949;BME280;20229;49.856;19.030;2023-11-21T18:52:36;101246.73;;;8.46;100.00
33949;BME280;20229;49.856;19.030;2023-11-21T18:57:50;101258.50;;;8.46;100.00
33949;BME280;20229;49.856;19.030;2023-11-21T19:03:04;101265.70;;;8.47;100.00
33949;BME280;20229;49.856;19.030;2023-11-21T19:08:23;101272.02;;;8.48;100.00
33949;BME280;20229;49.856;19.030;2023-11-21T19:13:37;101272.98;;;8.47;100.00
33949;BME280;20229;49.856;19.030;2023-11-21T19:18:52;101269.38;;;8.46;100.00
33949;BME280;20229;49.856;19.030;2023-11-21T19:24:07;101282.10;;;8.46;100.00
33949;BME280;20229;49.856;19.030;2023-11-21T19:29:23;101295.63;;;8.47;100.00
33949;BME280;20229;49.856;19.030;2023-11-21T19:34:37;101328.73;;;8.35;100.00
33949;BME280;20229;49.856;19.030;2023-11-21T19:39:51;101335.87;;;8.12;100.00
33949;BME280;20229;49.856;19.030;2023-11-21T19:45:06;101339.44;;;7.89;100.00
33949;BME280;20229;49.856;19.030;2023-11-21T19:50:21;101360.81;;;7.74;100.00
33949;BME280;20229;49.856;19.030;2023-11-21T19:55:35;101371.32;;;7.58;100.00
33949;BME280;20229;49.856;19.030;2023-11-21T20:00:51;101370.73;;;7.48;100.00
33949;BME280;20229;49.856;19.030;2023-11-21T20:06:06;101399.36;;;7.32;100.00
33949;BME280;20229;49.856;19.030;2023-11-21T20:11:22;101403.30;;;7.22;100.00
33949;BME280;20229;49.856;19.030;2023-11-21T20:16:39;101413.60;;;7.10;100.00
33949;BME280;20229;49.856;19.030;2023-11-21T20:21:55;101440.22;;;6.98;100.00
33949;BME280;20229;49.856;19.030;2023-11-21T20:27:09;101445.11;;;6.85;100.00
33949;BME280;20229;49.856;19.030;2023-11-21T20:32:23;101455.48;;;6.70;100.00
33949;BME280;20229;49.856;19.030;2023-11-21T20:37:38;101465.83;;;6.56;100.00
33949;BME280;20229;49.856;19.030;2023-11-21T20:42:52;101490.40;;;6.50;100.00
33949;BME280;20229;49.856;19.030;2023-11-21T20:48:07;101497.95;;;6.39;100.00
33949;BME280;20229;49.856;19.030;2023-11-21T20:53:21;101506.48;;;6.23;100.00
33949;BME280;20229;49.856;19.030;2023-11-21T20:58:36;101518.49;;;6.13;100.00
33949;BME280;20229;49.856;19.030;2023-11-21T21:03:50;101530.49;;;6.03;100.00
33949;BME280;20229;49.856;19.030;2023-11-21T21:09:05;101539.70;;;5.96;100.00
33949;BME280;20229;49.856;19.030;2023-11-21T21:14:18;101546.16;;;5.89;100.00
33949;BME280;20229;49.856;19.030;2023-11-21T21:19:33;101551.95;;;5.73;100.00
33949;BME280;20229;49.856;19.030;2023-11-21T21:24:48;101567.40;;;5.68;100.00
33949;BME280;20229;49.856;19.030;2023-11-21T21:30:03;101568.68;;;5.52;100.00
33949;BME280;20229;49.856;19.030;2023-11-21T21:35:18;101582.41;;;5.43;100.00
33949;BME280;20229;49.856;19.030;2023-11-21T21:40:32;101605.18;;;5.33;100.00
33949;BME280;20229;49.856;19.030;2023-11-21T21:45:48;101613.68;;;5.14;99.68
33949;BME280;20229;49.856;19.030;2023-11-21T21:51:03;101626.70;;;4.94;99.43
33949;BME280;20229;49.856;19.030;2023-11-21T21:56:20;101640.60;;;4.74;98.52
33949;BME280;20229;49.856;19.030;2023-11-21T22:01:34;101657.16;;;4.54;97.27
33949;BME280;20229;49.856;19.030;2023-11-21T22:06:50;101662.02;;;4.32;97.43
33949;BME280;20229;49.856;19.030;2023-11-21T22:12:07;101667.63;;;4.18;97.52
33949;BME280;20229;49.856;19.030;2023-11-21T22:17:23;101673.14;;;4.09;97.30
33949;BME280;20229;49.856;19.030;2023-11-21T22:22:38;101677.81;;;3.99;97.59
33949;BME280;20229;49.856;19.030;2023-11-21T22:27:54;101687.81;;;3.91;97.59
33949;BME280;20229;49.856;19.030;2023-11-21T22:33:09;101686.13;;;3.82;97.90
33949;BME280;20229;49.856;19.030;2023-11-21T22:38:23;101699.71;;;3.76;98.28
33949;BME280;20229;49.856;19.030;2023-11-21T22:43:38;101718.68;;;3.70;98.51
33949;BME280;20229;49.856;19.030;2023-11-21T22:48:52;101732.24;;;3.66;98.43
33949;BME280;20229;49.856;19.030;2023-11-21T22:54:07;101731.45;;;3.56;98.66
33949;BME280;20229;49.856;19.030;2023-11-21T22:59:21;101727.91;;;3.51;98.76
33949;BME280;20229;49.856;19.030;2023-11-21T23:04:35;101744.20;;;3.42;99.15
33949;BME280;20229;49.856;19.030;2023-11-21T23:09:49;101746.07;;;3.37;98.86
33949;BME280;20229;49.856;19.030;2023-11-21T23:15:06;101750.62;;;3.28;99.22
33949;BME280;20229;49.856;19.030;2023-11-21T23:20:20;101758.83;;;3.19;98.92
33949;BME280;20229;49.856;19.030;2023-11-21T23:25:36;101760.73;;;3.08;98.98
33949;BME280;20229;49.856;19.030;2023-11-21T23:30:51;101766.17;;;3.02;99.35
33949;BME280;20229;49.856;19.030;2023-11-21T23:36:06;101770.69;;;2.97;99.34
33949;BME280;20229;49.856;19.030;2023-11-21T23:41:20;101764.46;;;2.92;99.47
33949;BME280;20229;49.856;19.030;2023-11-21T23:46:36;101770.80;;;2.84;99.52
33949;BME280;20229;49.856;19.030;2023-11-21T23:51:50;101775.30;;;2.82;99.73
33949;BME280;20229;49.856;19.030;2023-11-21T23:57:04;101791.53;;;2.79;100.00
